createdAt,value
2018-10-01T00:01:24.491Z,5.23
2018-10-01T00:03:55.762Z,4.20
2018-10-01T00:06:27.565Z,4.20
2018-10-01T00:09:00.012Z,3.50
2018-10-01T00:11:32.287Z,3.10
2018-10-01T00:14:04.103Z,3.63
2018-10-01T00:16:36.463Z,3.37
2018-10-01T00:19:12.483Z,2.80
2018-10-01T00:21:48.003Z,3.03
2018-10-01T00:24:19.944Z,2.87
2018-10-01T00:26:51.682Z,4.30
2018-10-01T00:29:23.323Z,2.73
2018-10-01T00:31:54.763Z,2.93
2018-10-01T00:34:27.443Z,2.93
2018-10-01T00:36:59.043Z,3.00
2018-10-01T00:39:31.344Z,3.07
2018-10-01T00:42:02.726Z,2.93
2018-10-01T00:44:34.943Z,2.70
2018-10-01T00:47:06.104Z,3.17
2018-10-01T00:49:38.042Z,2.80
2018-10-01T00:52:09.163Z,2.60
2018-10-01T00:54:40.903Z,2.70
2018-10-01T00:57:13.123Z,3.70
2018-10-01T00:59:44.982Z,2.63
2018-10-01T01:02:16.806Z,2.50
2018-10-01T01:04:49.303Z,2.90
2018-10-01T01:07:20.663Z,2.73
2018-10-01T01:09:53.443Z,2.73
2018-10-01T01:12:24.945Z,3.63
2018-10-01T01:14:55.723Z,3.00
2018-10-01T01:17:27.603Z,6.53
2018-10-01T01:19:59.503Z,2.73
2018-10-01T01:22:30.747Z,2.70
2018-10-01T01:25:03.331Z,2.50
2018-10-01T01:27:34.994Z,2.50
2018-10-01T01:30:07.863Z,3.70
2018-10-01T01:32:39.323Z,46.97
2018-10-01T01:35:11.083Z,6.00
2018-10-01T01:37:41.884Z,6.17
2018-10-01T01:40:14.503Z,4.50
2018-10-01T01:42:45.922Z,3.53
2018-10-01T01:45:18.105Z,2.70
2018-10-01T01:47:50.184Z,2.53
2018-10-01T01:50:22.083Z,2.73
2018-10-01T01:52:55.284Z,2.97
2018-10-01T01:55:26.883Z,3.17
2018-10-01T01:57:59.244Z,2.87
2018-10-01T02:00:32.063Z,3.00
2018-10-01T02:03:04.123Z,2.40
2018-10-01T02:05:36.183Z,2.67
2018-10-01T02:08:08.163Z,2.57
2018-10-01T02:10:40.203Z,2.60
2018-10-01T02:13:11.863Z,2.90
2018-10-01T02:15:44.285Z,2.13
2018-10-01T02:18:16.563Z,1.90
2018-10-01T02:20:48.302Z,2.23
2018-10-01T02:23:20.482Z,1.80
2018-10-01T02:25:52.523Z,1.90
2018-10-01T02:28:23.585Z,1.63
2018-10-01T02:30:55.243Z,1.80
2018-10-01T02:33:26.924Z,2.40
2018-10-01T02:35:58.443Z,2.13
2018-10-01T02:38:29.807Z,2.17
2018-10-01T02:41:01.643Z,2.27
2018-10-01T02:43:34.423Z,2.10
2018-10-01T02:46:06.143Z,1.90
2018-10-01T02:48:37.923Z,2.20
2018-10-01T02:51:09.786Z,2.20
2018-10-01T02:53:46.124Z,2.10
2018-10-01T02:56:18.235Z,3.17
2018-10-01T02:58:49.623Z,2.80
2018-10-01T03:01:21.602Z,1.90
2018-10-01T03:03:53.443Z,2.20
2018-10-01T03:06:25.023Z,2.50
2018-10-01T03:08:56.483Z,1.83
2018-10-01T03:11:29.082Z,2.00
2018-10-01T03:14:00.363Z,2.20
2018-10-01T03:16:32.703Z,2.17
2018-10-01T03:19:04.163Z,2.60
2018-10-01T03:21:36.463Z,2.90
2018-10-01T03:24:08.222Z,2.67
2018-10-01T03:26:40.663Z,2.97
2018-10-01T03:29:13.062Z,4.40
2018-10-01T03:31:45.135Z,2.60
2018-10-01T03:34:17.425Z,2.63
2018-10-01T03:36:49.062Z,2.30
2018-10-01T03:39:20.963Z,2.57
2018-10-01T03:41:52.603Z,1.97
2018-10-01T03:44:25.110Z,3.00
2018-10-01T03:46:57.083Z,3.30
2018-10-01T03:49:28.804Z,3.83
2018-10-01T03:52:01.343Z,2.50
2018-10-01T03:54:33.163Z,50.30
2018-10-01T03:57:05.025Z,2.77
2018-10-01T03:59:37.123Z,4.03
2018-10-01T04:02:08.223Z,2.70
2018-10-01T04:04:39.903Z,2.13
2018-10-01T04:07:11.984Z,2.47
2018-10-01T04:09:43.843Z,4.50
2018-10-01T04:12:15.423Z,2.90
2018-10-01T04:14:47.003Z,2.70
2018-10-01T04:17:19.023Z,3.23
2018-10-01T04:19:50.323Z,3.30
2018-10-01T04:22:26.083Z,3.27
2018-10-01T04:24:56.483Z,4.70
2018-10-01T04:27:28.763Z,2.07
2018-10-01T04:30:01.143Z,2.57
2018-10-01T04:32:32.483Z,2.63
2018-10-01T04:35:03.983Z,3.30
2018-10-01T04:37:35.983Z,4.60
2018-10-01T04:40:07.583Z,3.03
2018-10-01T04:42:39.703Z,1.70
2018-10-01T04:45:11.783Z,2.80
2018-10-01T04:47:44.104Z,3.03
2018-10-01T04:50:16.303Z,5.67
2018-10-01T04:52:47.962Z,4.60
2018-10-01T04:55:21.003Z,3.67
2018-10-01T04:57:52.783Z,3.27
2018-10-01T05:00:25.543Z,2.83
2018-10-01T05:02:57.323Z,4.03
2018-10-01T05:05:29.123Z,2.90
2018-10-01T05:08:00.323Z,3.10
2018-10-01T05:10:33.263Z,2.83
2018-10-01T05:13:05.305Z,3.50
2018-10-01T05:15:37.983Z,3.47
2018-10-01T05:18:09.583Z,4.03
2018-10-01T05:20:41.586Z,30.00
2018-10-01T05:23:13.003Z,11.80
2018-10-01T05:25:45.303Z,5.87
2018-10-01T05:28:17.063Z,2.93
2018-10-01T05:30:49.383Z,4.67
2018-10-01T05:33:20.990Z,4.37
2018-10-01T05:35:53.023Z,2.97
2018-10-01T05:38:24.344Z,5.23
2018-10-01T05:40:55.424Z,5.73
2018-10-01T05:43:26.983Z,5.10
2018-10-01T05:45:59.425Z,5.53
2018-10-01T05:48:30.883Z,5.13
2018-10-01T05:51:03.383Z,6.50
2018-10-01T05:53:34.503Z,7.30
2018-10-01T05:56:07.223Z,6.47
2018-10-01T05:58:39.785Z,6.70
2018-10-01T06:01:11.143Z,6.60
2018-10-01T06:03:43.630Z,4.90
2018-10-01T06:06:15.223Z,6.07
2018-10-01T06:08:47.704Z,12.93
2018-10-01T06:11:19.203Z,5.10
2018-10-01T06:13:51.243Z,10.40
2018-10-01T06:16:23.463Z,7.30
2018-10-01T06:18:54.703Z,9.17
2018-10-01T06:21:26.326Z,7.17
2018-10-01T06:23:58.743Z,6.77
2018-10-01T06:26:31.405Z,6.30
2018-10-01T06:29:03.506Z,7.83
2018-10-01T06:31:35.543Z,6.50
2018-10-01T06:34:07.322Z,9.43
2018-10-01T06:36:39.843Z,9.80
2018-10-01T06:39:13.063Z,7.67
2018-10-01T06:41:45.084Z,11.20
2018-10-01T06:44:16.682Z,7.77
2018-10-01T06:46:48.484Z,7.10
2018-10-01T06:49:20.583Z,7.83
2018-10-01T06:51:52.623Z,9.00
2018-10-01T06:54:24.523Z,9.43
2018-10-01T06:56:56.763Z,6.17
2018-10-01T06:59:28.284Z,7.20
2018-10-01T07:02:00.123Z,13.43
2018-10-01T07:04:32.203Z,10.27
2018-10-01T07:07:04.522Z,7.60
2018-10-01T07:09:36.484Z,8.17
2018-10-01T07:12:08.382Z,7.23
2018-10-01T07:14:40.283Z,6.77
2018-10-01T07:17:12.063Z,7.23
2018-10-01T07:19:45.765Z,7.50
2018-10-01T07:22:17.762Z,6.90
2018-10-01T07:24:48.923Z,6.90
2018-10-01T07:27:21.024Z,5.70
2018-10-01T07:29:52.323Z,6.00
2018-10-01T07:32:23.543Z,6.00
2018-10-01T07:34:55.763Z,7.20
2018-10-01T07:37:27.542Z,9.37
2018-10-01T07:39:59.885Z,7.20
2018-10-01T07:42:31.604Z,6.60
2018-10-01T07:45:04.543Z,8.20
2018-10-01T07:47:36.286Z,7.77
2018-10-01T07:50:08.816Z,7.97
2018-10-01T07:52:40.774Z,9.15
2018-10-01T07:55:12.443Z,8.38
2018-10-01T07:57:44.483Z,7.28
2018-10-01T08:00:16.627Z,7.40
2018-10-01T08:02:48.743Z,9.53
2018-10-01T08:05:19.722Z,8.00
2018-10-01T08:07:52.164Z,7.12
2018-10-01T08:10:24.865Z,8.07
2018-10-01T08:12:56.928Z,9.03
2018-10-01T08:15:29.105Z,12.25
2018-10-01T08:18:01.045Z,8.65
2018-10-01T08:20:32.766Z,8.78
2018-10-01T08:23:04.679Z,8.25
2018-10-01T08:25:36.863Z,9.53
2018-10-01T08:28:08.560Z,8.83
2018-10-01T08:30:40.311Z,10.25
2018-10-01T08:33:12.171Z,9.68
2018-10-01T08:35:43.729Z,7.78
2018-10-01T08:38:15.621Z,9.78
2018-10-01T08:40:47.209Z,8.40
2018-10-01T08:43:19.129Z,12.30
2018-10-01T08:45:51.528Z,8.88
2018-10-01T08:48:24.168Z,8.95
2018-10-01T08:51:04.308Z,12.75
2018-10-01T08:53:47.028Z,12.43
2018-10-01T08:56:18.932Z,11.10
2018-10-01T08:58:50.585Z,15.88
2018-10-01T09:01:22.972Z,14.93
2018-10-01T09:03:54.483Z,16.50
2018-10-01T09:06:26.883Z,20.43
2018-10-01T09:08:58.204Z,19.65
2018-10-01T09:11:31.463Z,15.80
2018-10-01T09:14:03.192Z,17.35
2018-10-01T09:16:35.335Z,19.05
2018-10-01T09:19:07.862Z,16.85
2018-10-01T09:21:40.292Z,19.42
2018-10-01T09:24:12.476Z,17.80
2018-10-01T09:26:44.456Z,17.17
2018-10-01T09:29:15.976Z,22.53
2018-10-01T09:31:47.599Z,20.00
2018-10-01T09:34:18.981Z,19.62
2018-10-01T09:36:49.906Z,18.90
2018-10-01T09:39:21.684Z,21.12
2018-10-01T09:41:53.243Z,15.67
2018-10-01T09:44:24.992Z,20.05
2018-10-01T09:46:56.983Z,17.90
2018-10-01T09:49:28.692Z,17.60
2018-10-01T09:51:59.988Z,19.00
2018-10-01T09:54:31.526Z,23.23
2018-10-01T09:57:03.647Z,18.07
2018-10-01T09:59:35.099Z,21.43
2018-10-01T10:02:07.039Z,18.67
2018-10-01T10:04:38.711Z,21.87
2018-10-01T10:07:10.842Z,22.60
2018-10-01T10:09:42.323Z,22.02
2018-10-01T10:12:14.966Z,20.85
2018-10-01T10:14:46.531Z,21.97
2018-10-01T10:17:18.757Z,22.48
2018-10-01T10:19:50.867Z,24.37
2018-10-01T10:22:23.329Z,19.82
2018-10-01T10:24:56.426Z,22.10
2018-10-01T10:27:27.990Z,23.50
2018-10-01T10:30:00.306Z,23.92
2018-10-01T10:32:33.486Z,23.07
2018-10-01T10:35:04.913Z,24.67
2018-10-01T10:37:36.988Z,22.15
2018-10-01T10:40:08.261Z,24.93
2018-10-01T10:42:40.368Z,25.27
2018-10-01T10:45:12.192Z,21.42
2018-10-01T10:47:44.290Z,22.60
2018-10-01T10:50:16.389Z,24.15
2018-10-01T10:52:48.653Z,26.87
2018-10-01T10:55:20.610Z,31.35
2018-10-01T10:57:52.489Z,24.27
2018-10-01T11:00:24.858Z,28.33
2018-10-01T11:02:56.638Z,23.55
2018-10-01T11:05:28.480Z,25.97
2018-10-01T11:08:00.193Z,23.77
2018-10-01T11:10:32.094Z,22.73
2018-10-01T11:13:04.573Z,24.52
2018-10-01T11:15:36.061Z,26.65
2018-10-01T11:18:08.975Z,23.62
2018-10-01T11:20:41.839Z,22.27
2018-10-01T11:23:13.438Z,22.65
2018-10-01T11:25:45.223Z,23.32
2018-10-01T11:28:16.763Z,21.52
2018-10-01T11:30:49.125Z,22.37
2018-10-01T11:33:21.428Z,22.03
2018-10-01T11:35:53.866Z,22.03
2018-10-01T11:38:26.564Z,23.70
2018-10-01T11:40:58.163Z,24.70
2018-10-01T11:43:29.662Z,24.30
2018-10-01T11:46:00.637Z,23.70
2018-10-01T11:48:32.696Z,26.03
2018-10-01T11:51:04.682Z,23.70
2018-10-01T11:53:36.395Z,22.13
2018-10-01T11:56:07.516Z,26.37
2018-10-01T11:58:39.775Z,25.77
2018-10-01T12:01:11.895Z,23.40
2018-10-01T12:03:43.457Z,25.33
2018-10-01T12:06:14.776Z,26.03
2018-10-01T12:08:45.377Z,26.93
2018-10-01T12:11:17.271Z,23.90
2018-10-01T12:13:48.811Z,26.53
2018-10-01T12:16:20.951Z,25.10
2018-10-01T12:18:52.873Z,28.10
2018-10-01T12:21:25.092Z,23.17
2018-10-01T12:23:57.771Z,25.20
2018-10-01T12:26:29.751Z,23.50
2018-10-01T12:29:01.860Z,27.00
2018-10-01T12:31:33.275Z,25.68
2018-10-01T12:34:05.092Z,23.27
2018-10-01T12:36:36.434Z,22.52
2018-10-01T12:39:10.497Z,23.73
2018-10-01T12:41:43.852Z,23.85
2018-10-01T12:44:16.864Z,23.50
2018-10-01T12:46:48.922Z,27.50
2018-10-01T12:49:20.864Z,24.52
2018-10-01T12:51:53.264Z,27.60
2018-10-01T12:54:24.644Z,26.93
2018-10-01T12:56:56.718Z,35.65
2018-10-01T12:59:28.000Z,29.27
2018-10-01T13:02:00.184Z,31.62
2018-10-01T13:04:31.224Z,31.45
2018-10-01T13:07:03.365Z,33.08
2018-10-01T13:09:35.327Z,31.37
2018-10-01T13:12:06.830Z,44.33
2018-10-01T13:14:38.207Z,32.50
2018-10-01T13:17:09.867Z,30.52
2018-10-01T13:19:41.545Z,32.28
2018-10-01T13:22:14.284Z,29.18
2018-10-01T13:24:46.687Z,32.00
2018-10-01T13:27:18.916Z,32.50
2018-10-01T13:29:50.936Z,34.25
2018-10-01T13:32:22.595Z,32.23
2018-10-01T13:34:54.835Z,32.63
2018-10-01T13:37:26.860Z,28.67
2018-10-01T13:39:59.561Z,29.40
2018-10-01T13:42:31.801Z,31.30
2018-10-01T13:45:03.818Z,34.33
2018-10-01T13:47:35.069Z,31.85
2018-10-01T13:50:04.939Z,30.75
2018-10-01T13:52:35.101Z,30.43
2018-10-01T13:55:05.119Z,29.70
2018-10-01T13:57:36.459Z,28.25
2018-10-01T14:00:09.960Z,24.57
2018-10-01T14:02:42.519Z,26.10
2018-10-01T14:05:14.498Z,22.65
2018-10-01T14:07:46.411Z,23.00
2018-10-01T14:10:18.724Z,24.63
2018-10-01T14:12:51.338Z,22.73
2018-10-01T14:15:22.758Z,21.73
2018-10-01T14:17:54.718Z,23.70
2018-10-01T14:20:26.458Z,20.85
2018-10-01T14:22:58.378Z,20.90
2018-10-01T14:25:30.846Z,20.32
2018-10-01T14:28:02.478Z,18.27
2018-10-01T14:30:35.173Z,20.55
2018-10-01T14:33:06.778Z,17.37
2018-10-01T14:35:39.019Z,14.80
2018-10-01T14:38:10.698Z,16.42
2018-10-01T14:40:43.018Z,13.30
2018-10-01T14:43:15.479Z,13.95
2018-10-01T14:45:47.379Z,12.50
2018-10-01T14:48:20.745Z,17.07
2018-10-01T14:50:52.379Z,25.20
2018-10-01T14:53:24.358Z,17.15
2018-10-01T14:55:56.058Z,16.95
2018-10-01T14:58:27.638Z,17.77
2018-10-01T15:00:59.375Z,17.35
2018-10-01T15:03:31.350Z,20.43
2018-10-01T15:06:03.579Z,19.75
2018-10-01T15:08:35.300Z,20.48
2018-10-01T15:11:08.200Z,20.57
2018-10-01T15:13:40.418Z,20.65
2018-10-01T15:16:12.497Z,20.17
2018-10-01T15:18:44.480Z,17.82
2018-10-01T15:21:16.399Z,19.42
2018-10-01T15:23:49.139Z,18.32
2018-10-01T15:26:20.720Z,19.17
2018-10-01T15:28:52.998Z,16.82
2018-10-01T15:31:25.779Z,16.00
2018-10-01T15:33:57.920Z,19.05
2018-10-01T15:36:30.294Z,20.27
2018-10-01T15:39:02.959Z,18.52
2018-10-01T15:41:34.218Z,19.45
2018-10-01T15:44:06.364Z,15.28
2018-10-01T15:46:38.187Z,17.48
2018-10-01T15:49:10.851Z,16.42
2018-10-01T15:51:42.267Z,16.75
2018-10-01T15:54:14.925Z,15.58
2018-10-01T15:56:47.685Z,14.53
2018-10-01T15:59:19.507Z,14.68
2018-10-01T16:01:51.145Z,13.95
2018-10-01T16:04:22.965Z,13.18
2018-10-01T16:06:54.545Z,13.98
2018-10-01T16:09:26.625Z,14.78
2018-10-01T16:11:58.165Z,12.30
2018-10-01T16:14:30.846Z,14.60
2018-10-01T16:17:02.647Z,13.28
2018-10-01T16:19:34.385Z,11.48
2018-10-01T16:22:06.255Z,10.68
2018-10-01T16:24:39.126Z,12.15
2018-10-01T16:27:11.766Z,12.55
2018-10-01T16:29:43.865Z,12.28
2018-10-01T16:32:17.108Z,13.25
2018-10-01T16:34:49.627Z,17.35
2018-10-01T16:37:21.385Z,12.05
2018-10-01T16:39:53.125Z,12.53
2018-10-01T16:42:24.408Z,13.55
2018-10-01T16:44:56.684Z,11.90
2018-10-01T16:47:29.005Z,11.93
2018-10-01T16:50:00.545Z,12.03
2018-10-01T16:52:33.385Z,12.10
2018-10-01T16:55:04.887Z,13.03
2018-10-01T16:57:36.712Z,11.70
2018-10-01T17:00:09.105Z,11.57
2018-10-01T17:02:41.144Z,11.80
2018-10-01T17:05:13.245Z,11.12
2018-10-01T17:07:44.805Z,11.15
2018-10-01T17:10:17.045Z,11.80
2018-10-01T17:12:48.768Z,11.25
2018-10-01T17:15:20.747Z,11.88
2018-10-01T17:17:52.905Z,10.65
2018-10-01T17:20:25.065Z,10.75
2018-10-01T17:22:56.666Z,12.58
2018-10-01T17:25:27.986Z,15.10
2018-10-01T17:27:58.595Z,15.43
2018-10-01T17:30:30.548Z,15.10
2018-10-01T17:33:02.546Z,14.43
2018-10-01T17:35:34.646Z,14.98
2018-10-01T17:38:05.365Z,12.47
2018-10-01T17:40:36.945Z,9.28
2018-10-01T17:43:09.125Z,8.73
2018-10-01T17:45:40.886Z,8.55
2018-10-01T17:48:13.525Z,10.82
2018-10-01T17:50:45.485Z,8.80
2018-10-01T17:53:17.065Z,8.05
2018-10-01T17:55:48.426Z,8.48
2018-10-01T17:58:20.245Z,8.45
2018-10-01T18:00:52.526Z,10.85
2018-10-01T18:03:25.025Z,13.30
2018-10-01T18:05:57.149Z,13.93
2018-10-01T18:08:29.505Z,14.25
2018-10-01T18:11:01.705Z,16.85
2018-10-01T18:13:34.425Z,16.25
2018-10-01T18:16:06.145Z,15.38
2018-10-01T18:18:37.405Z,14.10
2018-10-01T18:21:08.725Z,15.13
2018-10-01T18:23:40.546Z,14.25
2018-10-01T18:26:12.046Z,17.45
2018-10-01T18:28:44.125Z,13.90
2018-10-01T18:31:16.167Z,16.15
2018-10-01T18:33:48.565Z,16.20
2018-10-01T18:36:20.367Z,16.85
2018-10-01T18:38:52.445Z,16.48
2018-10-01T18:41:23.785Z,15.90
2018-10-01T18:43:56.565Z,16.05
2018-10-01T18:46:29.385Z,16.90
2018-10-01T18:49:01.147Z,16.25
2018-10-01T18:51:32.828Z,18.12
2018-10-01T18:54:04.952Z,17.50
2018-10-01T18:56:37.385Z,16.70
2018-10-01T18:59:09.307Z,17.85
2018-10-01T19:01:41.668Z,15.50
2018-10-01T19:04:13.086Z,14.60
2018-10-01T19:06:45.404Z,13.03
2018-10-01T19:09:17.165Z,13.13
2018-10-01T19:11:48.952Z,13.62
2018-10-01T19:14:20.434Z,14.60
2018-10-01T19:16:52.813Z,12.13
2018-10-01T19:19:25.487Z,11.33
2018-10-01T19:21:57.044Z,11.78
2018-10-01T19:24:29.206Z,14.70
2018-10-01T19:27:00.753Z,9.23
2018-10-01T19:29:33.584Z,9.40
2018-10-01T19:32:06.185Z,9.83
2018-10-01T19:34:37.649Z,9.03
2018-10-01T19:37:10.208Z,9.43
2018-10-01T19:39:41.927Z,9.58
2018-10-01T19:42:13.806Z,9.95
2018-10-01T19:44:46.060Z,9.78
2018-10-01T19:47:17.890Z,10.10
2018-10-01T19:49:49.897Z,7.25
2018-10-01T19:52:22.228Z,7.40
2018-10-01T19:54:54.405Z,8.65
2018-10-01T19:57:26.826Z,6.80
2018-10-01T19:59:59.616Z,5.25
2018-10-01T20:02:31.853Z,7.83
2018-10-01T20:05:03.841Z,6.35
2018-10-01T20:07:35.725Z,5.35
2018-10-01T20:10:07.527Z,7.10
2018-10-01T20:12:39.706Z,5.33
2018-10-01T20:15:11.831Z,5.20
2018-10-01T20:17:43.568Z,4.80
2018-10-01T20:20:14.906Z,4.47
2018-10-01T20:22:47.369Z,6.00
2018-10-01T20:25:19.405Z,5.10
2018-10-01T20:27:51.745Z,4.70
2018-10-01T20:30:24.182Z,7.60
2018-10-01T20:32:55.768Z,5.75
2018-10-01T20:35:28.628Z,5.70
2018-10-01T20:38:01.039Z,5.70
2018-10-01T20:40:32.486Z,5.58
2018-10-01T20:43:04.887Z,5.15
2018-10-01T20:45:36.332Z,5.10
2018-10-01T20:48:08.918Z,6.47
2018-10-01T20:50:40.333Z,5.65
2018-10-01T20:53:13.060Z,6.12
2018-10-01T20:55:45.321Z,5.70
2018-10-01T20:58:17.127Z,5.15
2018-10-01T21:00:48.667Z,5.20
2018-10-01T21:03:19.874Z,4.90
2018-10-01T21:05:52.047Z,5.50
2018-10-01T21:08:23.933Z,5.97
2018-10-01T21:10:56.067Z,6.85
2018-10-01T21:13:27.847Z,7.67
2018-10-01T21:15:59.946Z,8.80
2018-10-01T21:18:32.808Z,8.50
2018-10-01T21:21:04.947Z,8.90
2018-10-01T21:23:36.766Z,8.23
2018-10-01T21:26:08.289Z,8.90
2018-10-01T21:28:39.327Z,8.60
2018-10-01T21:31:10.888Z,8.60
2018-10-01T21:33:42.106Z,9.10
2018-10-01T21:36:13.749Z,8.58
2018-10-01T21:38:45.789Z,7.05
2018-10-01T21:41:17.624Z,6.70
2018-10-01T21:43:49.388Z,7.15
2018-10-01T21:46:21.367Z,7.58
2018-10-01T21:48:53.567Z,8.05
2018-10-01T21:51:26.247Z,7.70
2018-10-01T21:53:58.707Z,8.70
2018-10-01T21:56:30.466Z,8.53
2018-10-01T21:59:02.387Z,8.88
2018-10-01T22:01:38.247Z,8.88
2018-10-01T22:04:10.827Z,8.70
2018-10-01T22:06:42.547Z,7.67
2018-10-01T22:09:14.547Z,7.67
2018-10-01T22:11:46.807Z,7.70
2018-10-01T22:14:19.047Z,8.00
2018-10-01T22:16:50.887Z,8.83
2018-10-01T22:19:23.107Z,7.08
2018-10-01T22:21:54.787Z,9.65
2018-10-01T22:24:27.507Z,6.90
2018-10-01T22:26:59.306Z,7.92
2018-10-01T22:29:31.510Z,7.00
2018-10-01T22:32:02.926Z,6.87
2018-10-01T22:34:35.266Z,6.58
2018-10-01T22:37:06.547Z,6.58
2018-10-01T22:39:38.586Z,7.20
2018-10-01T22:42:10.126Z,7.87
2018-10-01T22:44:41.966Z,7.15
2018-10-01T22:47:13.526Z,7.95
2018-10-01T22:49:45.928Z,8.50
2018-10-01T22:52:17.706Z,8.08
2018-10-01T22:54:49.826Z,8.03
2018-10-01T22:57:22.566Z,9.50
2018-10-01T22:59:54.087Z,9.95
2018-10-01T23:02:25.667Z,9.90
2018-10-01T23:04:57.466Z,10.50
2018-10-01T23:07:29.646Z,9.43
2018-10-01T23:10:01.328Z,10.72
2018-10-01T23:12:33.626Z,9.50
2018-10-01T23:15:05.047Z,9.38
2018-10-01T23:17:37.027Z,7.53
2018-10-01T23:20:09.306Z,6.67
2018-10-01T23:22:41.466Z,5.83
2018-10-01T23:25:13.987Z,5.62
2018-10-01T23:27:45.626Z,5.87
2018-10-01T23:30:17.629Z,4.87
2018-10-01T23:32:49.448Z,5.22
2018-10-01T23:35:22.286Z,4.53
2018-10-01T23:37:53.806Z,4.28
2018-10-01T23:40:25.446Z,4.50
2018-10-01T23:42:56.667Z,4.70
2018-10-01T23:45:29.287Z,4.75
2018-10-01T23:48:00.506Z,5.40
2018-10-01T23:50:32.326Z,7.20
2018-10-01T23:53:04.247Z,5.65
2018-10-01T23:55:36.946Z,5.92
2018-10-01T23:58:06.866Z,5.90
